Time,TemperatureF,DewpointF,PressureIn,WindDirection,WindDirectionDegrees,WindSpeedMPH,WindSpeedGustMPH,Humidity,HourlyPrecipIn,Conditions,Clouds,dailyrainin,SoftwareType,DateUTC
2016-09-01 00:02:00,55.0,49.6,30.04,WSW,247,1.0,3.0,82,0.00,,,0.00,WUHU21623XXSP,2016-08-31 14:02:00,
2016-09-01 00:07:00,55.0,49.6,30.04,SW,225,2.0,2.0,82,0.00,,,0.00,WUHU21623XXSP,2016-08-31 14:07:00,
2016-09-01 00:12:00,55.0,49.6,30.04,WNW,292,2.0,2.0,82,0.00,,,0.00,WUHU21623XXSP,2016-08-31 14:12:00,
2016-09-01 00:17:00,54.8,49.4,30.04,WNW,292,3.0,3.0,82,0.00,,,0.00,WUHU21623XXSP,2016-08-31 14:17:00,
2016-09-01 00:22:00,54.6,49.3,30.04,WNW,292,0.0,3.0,82,0.00,,,0.00,WUHU21623XXSP,2016-08-31 14:22:00,
2016-09-01 00:27:00,54.4,49.1,30.05,WSW,247,0.0,3.0,82,0.00,,,0.00,WUHU21623XXSP,2016-08-31 14:27:00,
2016-09-01 00:32:00,54.2,48.9,30.05,West,270,0.0,0.0,82,0.00,,,0.00,WUHU21623XXSP,2016-08-31 14:32:00,
2016-09-01 00:37:00,54.2,49.2,30.05,WNW,292,1.0,2.0,83,0.00,,,0.00,WUHU21623XXSP,2016-08-31 14:37:00,
2016-09-01 00:42:00,54.4,49.3,30.05,SW,225,1.0,3.0,83,0.00,,,0.00,WUHU21623XXSP,2016-08-31 14:42:00,
2016-09-01 00:47:00,54.4,49.3,30.05,WSW,247,2.0,3.0,83,0.00,,,0.00,WUHU21623XXSP,2016-08-31 14:47:00,
2016-09-01 00:52:00,54.4,49.0,30.05,SW,225,2.0,2.0,82,0.00,,,0.00,WUHU21623XXSP,2016-08-31 14:52:00,
2016-09-01 00:57:00,54.3,49.3,30.05,WNW,292,0.0,2.0,83,0.00,,,0.00,WUHU21623XXSP,2016-08-31 14:57:00,
2016-09-01 01:02:00,54.3,49.0,30.06,WNW,292,0.0,0.0,82,0.00,,,0.00,WUHU21623XXSP,2016-08-31 15:02:00,
2016-09-01 01:07:00,54.3,49.0,30.06,SW,225,0.0,0.0,82,0.00,,,0.00,WUHU21623XXSP,2016-08-31 15:07:00,
2016-09-01 01:12:00,54.1,48.8,30.06,West,270,1.0,1.0,82,0.00,,,0.00,WUHU21623XXSP,2016-08-31 15:12:00,
2016-09-01 01:17:00,53.9,48.9,30.05,WNW,292,2.0,2.0,83,0.00,,,0.00,WUHU21623XXSP,2016-08-31 15:17:00,
2016-09-01 01:22:00,53.9,48.9,30.05,WSW,247,3.0,3.0,83,0.00,,,0.00,WUHU21623XXSP,2016-08-31 15:22:00,
2016-09-01 01:27:00,54.1,49.0,30.05,West,270,0.0,3.0,83,0.00,,,0.00,WUHU21623XXSP,2016-08-31 15:27:00,
2016-09-01 01:32:00,54.3,48.9,30.06,WNW,292,1.0,1.0,82,0.00,,,0.00,WUHU21623XXSP,2016-08-31 15:32:00,
2016-09-01 01:37:00,54.3,49.2,30.06,West,270,2.0,2.0,83,0.00,,,0.00,WUHU21623XXSP,2016-08-31 15:37:00,
2016-09-01 01:42:00,54.4,49.1,30.06,West,270,0.0,2.0,82,0.00,,,0.00,WUHU21623XXSP,2016-08-31 15:42:00,
2016-09-01 01:47:00,54.4,49.1,30.05,West,265,2.0,5.0,82,0.00,,,0.00,WUHU21623XXSP,2016-08-31 15:47:00,
2016-09-01 01:52:00,54.4,49.1,30.05,SW,225,1.0,5.0,82,0.00,,,0.00,WUHU21623XXSP,2016-08-31 15:52:00,
2016-09-01 01:57:00,54.4,49.1,30.05,North,-9999,-999.9,0.0,82,0.00,,,0.00,WUHU21623XXSP,2016-08-31 15:57:00,
2016-09-01 02:02:00,54.4,49.1,30.06,North,-9999,-999.9,0.0,82,0.00,,,0.00,WUHU21623XXSP,2016-08-31 16:02:00,
2016-09-01 02:07:00,54.2,48.9,30.05,North,-9999,-999.9,0.0,82,0.00,,,0.00,WUHU21623XXSP,2016-08-31 16:07:00,
2016-09-01 02:12:00,54.2,48.8,30.05,North,-9999,-999.9,0.0,82,0.00,,,0.00,WUHU21623XXSP,2016-08-31 16:12:00,
2016-09-01 02:17:00,54.2,48.8,30.04,North,-9999,-999.9,0.0,82,0.00,,,0.00,WUHU21623XXSP,2016-08-31 16:17:00,
2016-09-01 02:22:00,54.0,48.6,30.05,WNW,292,0.0,0.0,82,0.00,,,0.00,WUHU21623XXSP,2016-08-31 16:22:00,
2016-09-01 02:27:00,53.6,48.2,30.05,West,277,1.0,1.0,82,0.00,,,0.00,WUHU21623XXSP,2016-08-31 16:27:00,
2016-09-01 02:32:00,53.5,48.1,30.05,WNW,292,0.0,1.0,82,0.00,,,0.00,WUHU21623XXSP,2016-08-31 16:32:00,